Time;durP1;ratioP1;P1;durP2;ratioP2;P2;SDS_P1;SDS_P2;PMS_P1;PMS_P2;Temp;Humidity;BMP_temperature;BMP_pressure;BME280_temperature;BME280_humidity;BME280_pressure;Samples;Min_cycle;Max_cycle;Signal;HPM_P1;HPM_P2
2021/04/29 00:01:41;;;;;;;2.33;2.20;;;11.60;96.20;;;;;;5098676;28;20240;-74
2021/04/29 00:04:07;;;;;;;1.77;1.67;;;11.60;96.30;;;;;;5100319;28;20294;-72
2021/04/29 00:06:33;;;;;;;3.80;2.30;;;11.70;96.40;;;;;;5085176;28;20280;-72
2021/04/29 00:08:59;;;;;;;2.58;2.38;;;11.70;96.60;;;;;;5097975;28;20183;-73
2021/04/29 00:11:25;;;;;;;2.20;2.10;;;11.70;96.40;;;;;;5097618;28;20182;-73
2021/04/29 00:13:50;;;;;;;2.40;2.30;;;11.80;96.10;;;;;;5098976;28;20189;-73
2021/04/29 00:16:16;;;;;;;3.15;2.78;;;11.80;95.90;;;;;;5097789;28;20213;-73
2021/04/29 00:18:42;;;;;;;2.55;2.45;;;11.80;95.50;;;;;;5102793;28;20177;-73
2021/04/29 00:21:07;;;;;;;3.40;3.10;;;11.80;95.30;;;;;;5101600;28;20258;-73
2021/04/29 00:23:33;;;;;;;2.90;2.70;;;11.80;95.50;;;;;;5101934;28;20260;-72
2021/04/29 00:25:59;;;;;;;2.88;2.78;;;11.80;95.30;;;;;;5099239;28;20261;-72
2021/04/29 00:28:25;;;;;;;3.53;3.33;;;11.80;95.00;;;;;;5101237;28;20647;-72
2021/04/29 00:30:51;;;;;;;3.60;3.30;;;11.80;95.20;;;;;;5099806;28;20177;-75
2021/04/29 00:33:17;;;;;;;3.28;3.08;;;11.80;95.00;;;;;;5100887;28;20174;-72
2021/04/29 00:35:43;;;;;;;3.38;3.17;;;11.80;95.10;;;;;;5103959;28;20216;-73
2021/04/29 00:38:08;;;;;;;3.78;3.42;;;11.70;95.20;;;;;;5097459;28;20278;-73
2021/04/29 00:40:34;;;;;;;2.88;2.67;;;11.70;95.30;;;;;;5097659;28;20184;-75
2021/04/29 00:43:00;;;;;;;3.28;3.08;;;11.70;95.20;;;;;;5097597;28;20606;-73
2021/04/29 00:45:26;;;;;;;3.17;2.97;;;11.60;95.30;;;;;;5103104;28;20182;-73
2021/04/29 00:47:52;;;;;;;4.13;3.30;;;11.60;95.20;;;;;;5098568;28;20189;-73
2021/04/29 00:50:24;;;;;;;3.17;2.88;;;11.60;95.50;;;;;;5104393;28;20221;-74
2021/04/29 00:52:50;;;;;;;3.97;3.67;;;11.50;95.20;;;;;;5101099;28;20182;-74
2021/04/29 00:55:16;;;;;;;3.60;3.30;;;11.50;95.50;;;;;;5098213;28;20698;-73
2021/04/29 00:57:42;;;;;;;4.38;3.08;;;11.50;95.60;;;;;;5100521;28;20191;-73
2021/04/29 01:00:10;;;;;;;4.05;3.65;;;11.50;95.40;;;;;;5099187;28;20223;-73
2021/04/29 01:02:42;;;;;;;3.45;3.25;;;11.50;95.90;;;;;;5100019;28;20184;-73
2021/04/29 01:05:34;;;;;;;4.03;3.72;;;11.50;95.80;;;;;;5101453;28;20182;-73
2021/04/29 01:08:08;;;;;;;3.35;3.15;;;11.50;95.40;;;;;;5100936;28;20225;-75
2021/04/29 01:10:43;;;;;;;3.50;3.20;;;11.50;96.10;;;;;;5098919;28;20873;-74
2021/04/29 01:13:12;;;;;;;3.63;3.42;;;11.60;95.70;;;;;;5101141;28;20267;-74
2021/04/29 01:15:42;;;;;;;2.35;2.25;;;11.60;95.80;;;;;;5099109;28;20300;-73
2021/04/29 01:18:09;;;;;;;4.25;2.95;;;11.70;95.70;;;;;;5100194;28;20627;-73
2021/04/29 01:20:56;;;;;;;2.47;2.35;;;11.70;95.90;;;;;;5093916;28;20185;-74
2021/04/29 01:23:40;;;;;;;3.45;3.15;;;11.80;95.10;;;;;;5099472;28;20804;-74
2021/04/29 01:26:19;;;;;;;3.72;3.38;;;11.80;95.00;;;;;;5092018;28;21498;-74
2021/04/29 01:28:48;;;;;;;3.50;3.05;;;11.80;95.00;;;;;;5100733;28;20568;-74
2021/04/29 01:31:14;;;;;;;3.25;3.03;;;11.80;95.30;;;;;;5098094;28;20742;-74
2021/04/29 01:33:40;;;;;;;2.65;2.55;;;11.90;95.20;;;;;;5097703;28;20726;-74
2021/04/29 01:36:08;;;;;;;3.80;3.00;;;11.90;95.20;;;;;;5098535;28;20512;-74
2021/04/29 01:38:36;;;;;;;2.83;2.63;;;12.00;95.10;;;;;;5098813;28;20193;-73
2021/04/29 01:41:02;;;;;;;3.28;3.05;;;12.00;95.20;;;;;;5101917;28;20182;-74
2021/04/29 01:43:29;;;;;;;3.42;3.22;;;12.00;95.20;;;;;;5099669;28;20720;-74
2021/04/29 01:45:56;;;;;;;4.72;3.25;;;12.10;95.10;;;;;;5098729;28;20207;-74
2021/04/29 01:48:22;;;;;;;4.82;4.47;;;12.10;95.10;;;;;;5097775;28;20186;-73
2021/04/29 01:50:48;;;;;;;3.97;3.67;;;12.10;95.20;;;;;;5100549;28;20670;-73
2021/04/29 01:53:14;;;;;;;5.18;3.88;;;12.10;95.00;;;;;;5098689;28;20181;-73
2021/04/29 01:55:40;;;;;;;4.10;3.78;;;12.10;94.80;;;;;;5098900;28;20248;-73
2021/04/29 01:58:05;;;;;;;3.65;3.45;;;12.10;94.60;;;;;;5097499;28;20657;-73
2021/04/29 02:00:31;;;;;;;5.22;3.28;;;12.10;94.80;;;;;;5100604;28;20178;-72
2021/04/29 02:03:01;;;;;;;3.22;3.13;;;12.10;94.80;;;;;;5100841;28;20296;-73
2021/04/29 02:05:27;;;;;;;3.97;3.67;;;12.10;94.30;;;;;;5101444;28;20185;-73
2021/04/29 02:07:53;;;;;;;3.53;3.22;;;12.00;94.50;;;;;;5097642;28;20221;-73
2021/04/29 02:10:19;;;;;;;3.70;3.40;;;12.00;94.40;;;;;;5103109;28;20174;-73
2021/04/29 02:12:50;;;;;;;4.50;4.10;;;12.00;94.60;;;;;;5100994;28;20346;-73
2021/04/29 02:15:16;;;;;;;3.55;3.25;;;12.00;94.30;;;;;;5099067;28;20209;-73
2021/04/29 02:18:01;;;;;;;3.50;3.30;;;12.00;94.90;;;;;;5095924;28;20243;-73
2021/04/29 02:20:30;;;;;;;10.20;3.33;;;12.00;94.20;;;;;;5097930;28;20220;-73
2021/04/29 02:22:56;;;;;;;5.10;4.15;;;12.00;94.80;;;;;;5097871;28;20177;-73
2021/04/29 02:25:26;;;;;;;7.55;3.42;;;12.00;94.90;;;;;;5099280;28;20189;-72
2021/04/29 02:27:53;;;;;;;4.00;3.70;;;12.00;95.00;;;;;;5095971;28;20723;-73
2021/04/29 02:30:19;;;;;;;5.53;3.90;;;12.00;95.00;;;;;;5097684;28;20562;-73
2021/04/29 02:32:45;;;;;;;4.47;4.07;;;12.00;94.90;;;;;;5102317;28;20268;-73
2021/04/29 02:35:15;;;;;;;5.57;3.55;;;12.00;95.00;;;;;;5096219;28;20209;-73
2021/04/29 02:37:44;;;;;;;4.45;3.92;;;12.00;94.70;;;;;;5094004;28;20738;-73
2021/04/29 02:40:13;;;;;;;5.30;4.45;;;12.00;94.70;;;;;;5096342;28;20186;-72
2021/04/29 02:42:39;;;;;;;8.27;4.82;;;12.00;94.60;;;;;;5099995;28;20185;-73
2021/04/29 02:45:10;;;;;;;4.78;4.25;;;11.90;94.50;;;;;;5097614;28;20189;-73
2021/04/29 02:47:38;;;;;;;6.63;4.05;;;11.90;94.20;;;;;;5103824;28;20185;-73
2021/04/29 02:50:08;;;;;;;5.70;3.83;;;11.80;94.40;;;;;;5099454;28;20178;-73
2021/04/29 02:52:34;;;;;;;4.15;3.85;;;11.70;94.50;;;;;;5101520;28;20181;-73
2021/04/29 02:55:00;;;;;;;5.05;4.13;;;11.70;94.50;;;;;;5099776;28;20224;-73
2021/04/29 02:57:26;;;;;;;5.53;4.03;;;11.60;94.60;;;;;;5099396;28;20570;-73
2021/04/29 02:59:51;;;;;;;4.90;3.75;;;11.60;94.70;;;;;;5097353;28;20181;-73
2021/04/29 03:02:17;;;;;;;4.65;4.18;;;11.50;94.80;;;;;;5103814;28;20591;-73
2021/04/29 03:04:43;;;;;;;5.78;4.45;;;11.40;94.90;;;;;;5101192;28;20215;-73
2021/04/29 03:07:09;;;;;;;5.63;4.85;;;11.40;94.90;;;;;;5102358;28;20279;-73
2021/04/29 03:09:36;;;;;;;4.10;3.85;;;11.30;95.20;;;;;;5093946;28;20648;-73
2021/04/29 03:12:01;;;;;;;4.15;3.78;;;11.30;95.00;;;;;;5097566;28;20877;-73
2021/04/29 03:14:27;;;;;;;4.88;4.50;;;11.30;95.50;;;;;;5088781;28;20186;-73
2021/04/29 03:16:52;;;;;;;5.88;4.47;;;11.20;95.50;;;;;;5097959;28;20211;-73
2021/04/29 03:19:18;;;;;;;7.70;3.90;;;11.20;95.50;;;;;;5097136;28;20269;-73
2021/04/29 03:21:47;;;;;;;3.80;3.53;;;11.10;95.50;;;;;;5079829;28;20600;-72
2021/04/29 03:24:12;;;;;;;4.00;3.70;;;11.10;95.70;;;;;;5096962;28;20181;-72
2021/04/29 03:26:38;;;;;;;3.30;3.03;;;11.10;95.90;;;;;;5101043;28;20184;-73
2021/04/29 03:29:04;;;;;;;5.03;3.95;;;11.10;96.00;;;;;;5099706;28;20678;-72
2021/04/29 03:31:29;;;;;;;4.77;4.27;;;11.00;96.10;;;;;;5105407;28;20197;-72
2021/04/29 03:33:55;;;;;;;4.35;4.05;;;11.00;96.20;;;;;;5102234;28;20260;-73
2021/04/29 03:36:21;;;;;;;4.20;3.90;;;10.90;96.20;;;;;;5104029;28;21037;-72
2021/04/29 03:38:46;;;;;;;4.03;3.83;;;10.90;96.20;;;;;;5097542;28;20182;-73
2021/04/29 03:41:12;;;;;;;5.10;4.63;;;10.90;96.40;;;;;;5102469;28;20910;-72
2021/04/29 03:43:38;;;;;;;4.82;4.15;;;10.90;96.40;;;;;;5099755;28;20174;-73
2021/04/29 03:46:03;;;;;;;9.25;4.75;;;10.90;96.50;;;;;;5097818;28;20185;-73
2021/04/29 03:48:29;;;;;;;4.38;4.07;;;10.80;96.70;;;;;;5098665;28;20205;-73
2021/04/29 03:50:55;;;;;;;7.32;5.05;;;10.80;96.70;;;;;;5100550;28;20182;-73
2021/04/29 03:53:20;;;;;;;5.35;4.38;;;10.80;96.70;;;;;;5098503;28;20239;-73
2021/04/29 03:55:46;;;;;;;7.50;4.72;;;10.80;96.90;;;;;;5098699;28;20209;-73
2021/04/29 03:58:12;;;;;;;5.07;4.78;;;10.80;96.90;;;;;;5103001;28;20178;-72
2021/04/29 04:00:37;;;;;;;5.77;4.80;;;10.80;97.10;;;;;;5102497;28;21913;-73
2021/04/29 04:03:03;;;;;;;7.97;5.32;;;10.80;97.10;;;;;;5102301;28;20630;-73
2021/04/29 04:05:29;;;;;;;4.85;4.50;;;10.80;97.20;;;;;;5099759;28;20439;-73
2021/04/29 04:07:55;;;;;;;6.40;5.15;;;10.80;97.10;;;;;;5095324;28;20190;-74
2021/04/29 04:10:20;;;;;;;5.47;5.00;;;10.80;97.20;;;;;;5100383;28;20189;-72
2021/04/29 04:12:46;;;;;;;8.10;5.13;;;10.70;97.30;;;;;;5092680;28;20190;-73
2021/04/29 04:15:12;;;;;;;5.22;4.72;;;10.70;97.40;;;;;;5101403;28;20218;-73
2021/04/29 04:17:37;;;;;;;5.30;4.80;;;10.70;97.50;;;;;;5104009;28;20182;-74
2021/04/29 04:20:03;;;;;;;5.80;4.60;;;10.80;97.60;;;;;;5099768;28;20186;-72
2021/04/29 04:22:29;;;;;;;5.20;4.77;;;10.80;97.60;;;;;;5101723;28;20175;-74
2021/04/29 04:24:55;;;;;;;5.53;5.00;;;10.80;97.60;;;;;;5098195;28;20188;-73
2021/04/29 04:27:21;;;;;;;9.65;5.70;;;10.80;97.70;;;;;;5099299;28;20190;-72
2021/04/29 04:29:46;;;;;;;6.45;5.60;;;10.90;97.80;;;;;;5100051;28;20201;-71
2021/04/29 04:32:12;;;;;;;8.23;5.82;;;10.90;97.90;;;;;;5099137;28;20195;-72
2021/04/29 04:34:38;;;;;;;5.35;4.85;;;11.00;98.10;;;;;;5100939;28;20300;-72
2021/04/29 04:37:03;;;;;;;8.23;5.38;;;11.00;98.10;;;;;;5096174;28;20269;-73
2021/04/29 04:39:29;;;;;;;6.20;5.37;;;11.10;98.00;;;;;;5098772;28;20226;-72
2021/04/29 04:41:55;;;;;;;5.47;5.05;;;11.20;97.90;;;;;;5096727;28;20193;-72
2021/04/29 04:44:20;;;;;;;8.35;5.60;;;11.20;98.00;;;;;;5095837;28;20760;-72
2021/04/29 04:46:46;;;;;;;11.80;5.85;;;11.30;97.90;;;;;;5101571;28;20266;-72
2021/04/29 04:49:12;;;;;;;5.68;5.10;;;11.40;97.80;;;;;;5101150;28;20227;-72
2021/04/29 04:51:38;;;;;;;6.07;5.40;;;11.40;97.70;;;;;;5097716;28;20187;-72
2021/04/29 04:54:03;;;;;;;9.98;5.80;;;11.50;97.60;;;;;;5084254;28;20181;-72
2021/04/29 04:56:29;;;;;;;11.30;6.07;;;11.60;97.40;;;;;;5099564;28;20213;-72
2021/04/29 04:58:55;;;;;;;6.15;5.10;;;11.70;97.20;;;;;;5099460;28;20185;-72
2021/04/29 05:01:21;;;;;;;7.43;4.90;;;11.70;97.00;;;;;;5100601;28;20629;-72
2021/04/29 05:03:48;;;;;;;7.25;5.70;;;11.80;96.90;;;;;;5103192;28;20185;-72
2021/04/29 05:06:15;;;;;;;7.70;5.80;;;11.80;96.80;;;;;;5099243;28;20188;-72
2021/04/29 05:08:41;;;;;;;7.15;6.07;;;11.90;96.70;;;;;;5096093;28;20721;-72
2021/04/29 05:11:07;;;;;;;7.93;5.82;;;11.90;96.60;;;;;;5091746;28;20278;-73
2021/04/29 05:13:32;;;;;;;8.50;6.10;;;12.00;96.50;;;;;;5088564;28;20290;-72
2021/04/29 05:15:58;;;;;;;11.45;6.50;;;12.00;96.20;;;;;;5094297;28;20299;-72
2021/04/29 05:18:27;;;;;;;8.90;6.80;;;12.10;96.20;;;;;;5095401;28;20569;-74
2021/04/29 05:20:53;;;;;;;9.80;6.78;;;12.10;96.30;;;;;;5098042;28;20779;-72
2021/04/29 05:23:19;;;;;;;8.45;6.78;;;12.20;96.50;;;;;;5095522;28;20177;-73
2021/04/29 05:25:44;;;;;;;9.90;7.32;;;12.20;96.60;;;;;;5094698;28;20198;-73
2021/04/29 05:28:10;;;;;;;11.88;7.65;;;12.30;96.70;;;;;;5097165;28;20193;-74
2021/04/29 05:30:36;;;;;;;12.90;7.53;;;12.40;96.10;;;;;;5076456;28;21032;-73
2021/04/29 05:33:02;;;;;;;7.95;6.53;;;12.50;96.00;;;;;;5102170;28;20209;-73
2021/04/29 05:35:27;;;;;;;13.32;7.55;;;12.60;95.80;;;;;;5093512;28;20717;-73
2021/04/29 05:37:53;;;;;;;8.75;6.88;;;12.70;95.80;;;;;;5096756;28;20182;-73
2021/04/29 05:40:19;;;;;;;8.48;6.90;;;12.80;95.70;;;;;;5089903;28;20255;-74
2021/04/29 05:42:45;;;;;;;8.93;7.10;;;13.00;95.60;;;;;;5089815;28;20226;-73
2021/04/29 05:45:12;;;;;;;9.98;7.32;;;13.10;95.40;;;;;;5096275;28;20879;-72
2021/04/29 05:47:37;;;;;;;17.40;7.78;;;13.20;95.10;;;;;;5100673;28;20690;-71
2021/04/29 05:50:04;;;;;;;10.55;7.43;;;13.40;94.40;;;;;;5095901;28;20204;-72
2021/04/29 05:52:31;;;;;;;13.50;7.32;;;13.50;93.80;;;;;;5079031;28;20203;-72
2021/04/29 05:54:57;;;;;;;7.68;6.32;;;13.60;93.80;;;;;;5096757;28;21049;-72
2021/04/29 05:57:23;;;;;;;11.68;7.22;;;13.70;92.70;;;;;;5103325;28;20267;-72
2021/04/29 05:59:49;;;;;;;10.73;7.82;;;13.80;92.70;;;;;;5096159;28;20651;-73
2021/04/29 06:02:15;;;;;;;12.27;8.40;;;13.80;92.30;;;;;;5097957;28;20227;-72
2021/04/29 06:04:41;;;;;;;9.68;6.95;;;13.90;92.00;;;;;;5097928;28;20270;-73
2021/04/29 06:07:08;;;;;;;9.25;7.25;;;13.90;92.00;;;;;;5090554;28;20210;-74
2021/04/29 06:09:34;;;;;;;8.20;7.20;;;14.00;91.70;;;;;;5093045;28;20177;-72
2021/04/29 06:12:05;;;;;;;12.75;7.22;;;14.10;91.50;;;;;;5092732;28;20238;-73
2021/04/29 06:14:30;;;;;;;11.38;8.35;;;14.20;90.90;;;;;;5095101;28;20670;-73
2021/04/29 06:16:56;;;;;;;12.65;9.07;;;14.20;90.70;;;;;;5098650;28;20186;-72
2021/04/29 06:19:22;;;;;;;17.80;8.90;;;14.20;90.30;;;;;;5094746;28;20170;-72
2021/04/29 06:21:48;;;;;;;18.88;9.07;;;14.20;90.20;;;;;;5098370;28;20261;-71
2021/04/29 06:24:13;;;;;;;14.95;9.48;;;14.20;90.00;;;;;;5097612;28;21967;-73
2021/04/29 06:26:41;;;;;;;13.50;9.38;;;14.20;90.10;;;;;;5097458;28;20932;-73
2021/04/29 06:29:07;;;;;;;13.20;10.20;;;14.20;89.90;;;;;;5078988;28;20188;-73
2021/04/29 06:31:35;;;;;;;13.90;9.77;;;14.20;90.20;;;;;;5103196;28;20177;-73
2021/04/29 06:34:02;;;;;;;15.02;10.30;;;14.10;90.50;;;;;;5085346;28;20692;-73
2021/04/29 06:36:28;;;;;;;17.50;10.77;;;14.00;90.20;;;;;;5096002;28;20236;-73
2021/04/29 06:38:53;;;;;;;15.88;10.70;;;13.90;90.20;;;;;;5094602;28;20185;-73
2021/04/29 06:41:19;;;;;;;16.15;10.27;;;13.90;90.50;;;;;;5092781;28;21918;-72
2021/04/29 06:43:45;;;;;;;18.60;10.13;;;13.80;90.50;;;;;;5098176;28;20739;-72
2021/04/29 06:46:11;;;;;;;13.30;10.38;;;13.80;90.70;;;;;;5080199;28;20593;-72
2021/04/29 06:48:38;;;;;;;16.05;10.13;;;13.80;90.60;;;;;;5112840;28;20186;-72
2021/04/29 06:51:04;;;;;;;13.85;9.88;;;13.80;90.40;;;;;;5092940;28;20189;-73
2021/04/29 06:53:30;;;;;;;17.08;10.75;;;13.90;90.80;;;;;;5094443;28;20578;-72
2021/04/29 06:55:56;;;;;;;17.45;10.10;;;13.90;90.10;;;;;;5093214;28;20209;-72
2021/04/29 06:58:23;;;;;;;12.93;9.57;;;13.90;90.70;;;;;;5096643;28;20185;-73
2021/04/29 07:00:49;;;;;;;14.23;9.65;;;14.00;90.70;;;;;;5097245;28;20285;-74
2021/04/29 07:03:15;;;;;;;18.67;10.32;;;14.10;90.70;;;;;;5094360;28;20785;-72
2021/04/29 07:05:40;;;;;;;18.52;10.35;;;14.20;90.20;;;;;;5114731;27;20191;-71
2021/04/29 07:08:06;;;;;;;15.30;10.35;;;14.30;90.40;;;;;;5079251;28;20674;-72
2021/04/29 07:10:32;;;;;;;12.60;9.75;;;14.50;90.50;;;;;;5079863;28;20259;-73
2021/04/29 07:12:58;;;;;;;14.57;10.10;;;14.60;90.30;;;;;;5099180;28;20225;-73
2021/04/29 07:15:24;;;;;;;15.07;10.02;;;14.80;89.40;;;;;;5101683;28;20212;-72
2021/04/29 07:17:49;;;;;;;16.48;10.18;;;14.90;89.50;;;;;;5106717;28;20196;-73
2021/04/29 07:20:15;;;;;;;13.35;10.15;;;15.00;89.20;;;;;;5076748;28;20185;-73
2021/04/29 07:22:41;;;;;;;17.25;10.10;;;15.00;88.60;;;;;;5097640;28;20608;-72
2021/04/29 07:25:07;;;;;;;18.10;11.90;;;15.10;87.30;;;;;;5099917;28;20221;-72
2021/04/29 07:27:34;;;;;;;15.43;11.05;;;15.10;87.50;;;;;;5099006;28;20181;-73
2021/04/29 07:30:00;;;;;;;18.17;10.40;;;15.10;87.40;;;;;;5098884;28;20197;-73
2021/04/29 07:32:26;;;;;;;17.27;10.85;;;15.10;87.10;;;;;;5101746;28;20178;-73
2021/04/29 07:34:51;;;;;;;13.50;9.98;;;15.10;86.80;;;;;;5099584;28;20228;-73
2021/04/29 07:37:17;;;;;;;19.85;11.40;;;15.10;87.00;;;;;;5099552;28;20672;-73
2021/04/29 07:39:43;;;;;;;17.35;10.35;;;15.20;87.50;;;;;;5099551;28;20190;-73
2021/04/29 07:42:08;;;;;;;14.15;9.88;;;15.20;87.40;;;;;;5097949;28;20578;-73
2021/04/29 07:44:34;;;;;;;16.08;10.38;;;15.30;87.50;;;;;;5097709;28;20174;-73
2021/04/29 07:47:00;;;;;;;14.48;10.48;;;15.40;87.60;;;;;;5102401;28;20192;-72
2021/04/29 07:49:26;;;;;;;18.20;10.88;;;15.50;87.50;;;;;;5103970;28;20650;-73
2021/04/29 07:51:53;;;;;;;16.75;10.50;;;15.60;87.10;;;;;;5098386;28;20578;-73
2021/04/29 07:54:18;;;;;;;19.08;11.32;;;15.70;87.10;;;;;;5094365;28;20197;-72
2021/04/29 07:56:44;;;;;;;14.38;11.18;;;15.80;87.20;;;;;;5094683;28;20602;-72
2021/04/29 07:59:10;;;;;;;17.17;11.68;;;15.90;86.70;;;;;;5097324;28;20674;-73
2021/04/29 08:01:36;;;;;;;15.90;11.35;;;15.90;85.40;;;;;;5098315;28;20182;-73
2021/04/29 08:04:03;;;;;;;23.98;11.63;;;16.00;85.30;;;;;;5078895;28;20280;-71
2021/04/29 08:06:29;;;;;;;17.40;11.48;;;16.00;85.40;;;;;;5093114;28;20678;-72
2021/04/29 08:08:55;;;;;;;24.95;10.52;;;16.00;85.50;;;;;;5102187;28;20178;-73
2021/04/29 08:11:21;;;;;;;16.77;11.35;;;16.10;86.50;;;;;;5097329;28;20182;-73
2021/04/29 08:13:47;;;;;;;19.27;11.95;;;16.20;85.30;;;;;;5098854;28;20204;-73
2021/04/29 08:16:13;;;;;;;14.27;10.85;;;16.30;85.20;;;;;;5097364;28;20210;-73
2021/04/29 08:18:39;;;;;;;14.52;10.63;;;16.40;85.30;;;;;;5099609;28;20198;-73
2021/04/29 08:21:08;;;;;;;19.33;11.32;;;16.40;85.30;;;;;;5094522;28;20710;-73
2021/04/29 08:23:34;;;;;;;18.08;12.25;;;16.50;85.20;;;;;;5098499;28;20193;-72
2021/04/29 08:26:00;;;;;;;20.60;12.20;;;16.60;84.20;;;;;;5092569;28;20214;-72
2021/04/29 08:28:26;;;;;;;17.40;11.43;;;16.60;83.80;;;;;;5096613;28;20174;-72
2021/04/29 08:30:51;;;;;;;19.23;11.38;;;16.70;84.40;;;;;;5091335;28;20182;-73
2021/04/29 08:33:17;;;;;;;20.55;12.20;;;16.80;83.80;;;;;;5075363;28;20248;-73
2021/04/29 08:35:43;;;;;;;16.60;11.68;;;16.90;83.50;;;;;;5099845;28;20212;-73
2021/04/29 08:38:09;;;;;;;20.45;11.20;;;17.00;82.80;;;;;;5095244;28;20652;-74
2021/04/29 08:40:34;;;;;;;15.30;10.15;;;17.10;83.30;;;;;;5091907;28;20182;-72
2021/04/29 08:43:00;;;;;;;13.38;10.20;;;17.20;84.10;;;;;;5090953;28;20660;-72
2021/04/29 08:45:26;;;;;;;14.82;10.45;;;17.30;84.10;;;;;;5091863;28;20190;-73
2021/04/29 08:47:54;;;;;;;16.52;10.60;;;17.50;82.90;;;;;;5094941;28;20242;-72
2021/04/29 08:50:21;;;;;;;15.75;9.55;;;17.60;81.70;;;;;;5096873;28;20924;-74
2021/04/29 08:52:47;;;;;;;17.33;10.05;;;17.80;82.00;;;;;;5091324;28;20178;-72
2021/04/29 08:55:22;;;;;;;17.27;9.90;;;17.90;82.00;;;;;;5090849;28;20217;-72
2021/04/29 08:57:47;;;;;;;15.88;10.52;;;18.10;81.80;;;;;;5090849;28;20189;-72
2021/04/29 09:00:15;;;;;;;21.45;10.05;;;18.20;81.70;;;;;;5088179;28;20180;-73
2021/04/29 09:02:41;;;;;;;16.70;9.77;;;18.40;81.20;;;;;;5086659;28;20319;-73
2021/04/29 09:05:47;;;;;;;11.80;9.20;;;18.60;80.50;;;;;;5089666;28;20559;-72
2021/04/29 09:08:12;;;;;;;12.38;9.63;;;18.70;80.60;;;;;;5026366;28;20876;-73
2021/04/29 09:10:41;;;;;;;16.30;10.40;;;18.90;79.60;;;;;;5025167;28;20275;-72
2021/04/29 09:13:14;;;;;;;13.52;8.93;;;19.10;78.90;;;;;;5005296;28;20199;-74
2021/04/29 09:15:44;;;;;;;14.98;9.65;;;19.30;78.30;;;;;;5026166;28;20220;-71
2021/04/29 09:18:14;;;;;;;13.00;9.00;;;19.50;77.40;;;;;;5028979;28;20188;-72
2021/04/29 09:20:52;;;;;;;18.40;9.65;;;19.80;77.50;;;;;;5023776;28;20183;-72
2021/04/29 09:23:21;;;;;;;12.82;9.25;;;20.10;76.00;;;;;;5028489;28;20195;-72
2021/04/29 09:26:00;;;;;;;16.10;10.20;;;20.50;75.10;;;;;;5023081;28;20192;-73
2021/04/29 09:28:39;;;;;;;12.80;10.43;;;20.80;74.30;;;;;;5025817;28;20214;-72
2021/04/29 09:31:08;;;;;;;11.63;8.82;;;21.20;73.50;;;;;;5026278;28;20215;-72
2021/04/29 09:33:36;;;;;;;11.73;8.32;;;21.40;72.20;;;;;;5031530;28;20195;-72
2021/04/29 09:36:04;;;;;;;12.15;8.95;;;21.80;71.60;;;;;;5026839;28;20224;-72
2021/04/29 09:38:37;;;;;;;12.50;9.23;;;22.20;72.60;;;;;;5025103;28;20736;-72
2021/04/29 09:41:04;;;;;;;14.85;8.77;;;22.60;70.50;;;;;;5030265;28;20195;-72
2021/04/29 09:43:30;;;;;;;11.90;8.55;;;23.20;69.40;;;;;;5091092;28;20193;-71
2021/04/29 09:46:00;;;;;;;10.48;8.68;;;23.80;67.90;;;;;;5089216;28;20177;-73
2021/04/29 09:48:35;;;;;;;14.30;7.97;;;24.40;66.00;;;;;;5096908;28;20234;-73
2021/04/29 09:51:01;;;;;;;16.27;8.25;;;24.90;66.00;;;;;;5101643;28;20610;-73
2021/04/29 09:53:38;;;;;;;10.20;7.60;;;25.60;64.30;;;;;;5096464;28;20186;-73
2021/04/29 09:56:10;;;;;;;9.43;6.63;;;26.50;63.90;;;;;;5098858;28;20221;-73
2021/04/29 09:58:44;;;;;;;12.82;8.55;;;27.60;62.10;;;;;;5097118;28;20281;-73
2021/04/29 10:01:11;;;;;;;13.75;8.50;;;28.20;59.70;;;;;;5078589;28;20184;-73
2021/04/29 10:03:38;;;;;;;16.70;7.15;;;28.70;59.10;;;;;;5097794;28;20186;-73
2021/04/29 10:06:05;;;;;;;12.40;7.63;;;29.10;58.30;;;;;;5099906;28;20294;-72
2021/04/29 10:08:34;;;;;;;10.85;7.03;;;29.70;58.10;;;;;;5093770;28;20272;-73
2021/04/29 10:11:02;;;;;;;14.25;8.13;;;30.40;56.60;;;;;;5100272;28;20585;-73
2021/04/29 10:13:33;;;;;;;7.78;6.00;;;31.00;54.40;;;;;;5096854;28;20220;-72
2021/04/29 10:15:59;;;;;;;12.27;7.13;;;31.80;53.20;;;;;;5096243;28;20190;-73
2021/04/29 10:18:26;;;;;;;11.25;6.72;;;32.30;53.10;;;;;;5092243;28;20182;-71
2021/04/29 10:20:55;;;;;;;7.90;7.10;;;32.70;53.20;;;;;;5096885;28;20543;-72
2021/04/29 10:23:21;;;;;;;6.85;6.20;;;33.00;53.50;;;;;;5090840;28;20179;-72
2021/04/29 10:25:55;;;;;;;12.18;6.70;;;33.40;51.80;;;;;;5092253;28;20213;-73
2021/04/29 10:28:42;;;;;;;12.05;7.05;;;33.80;51.40;;;;;;5093731;28;20556;-72
2021/04/29 10:31:21;;;;;;;7.65;5.78;;;34.30;49.90;;;;;;5097479;28;20237;-73
2021/04/29 10:34:01;;;;;;;9.65;5.90;;;34.60;51.30;;;;;;5089120;28;20184;-72
2021/04/29 10:36:46;;;;;;;6.90;5.82;;;34.60;51.70;;;;;;5073390;28;20192;-72
2021/04/29 10:39:24;;;;;;;7.32;6.35;;;34.60;50.30;;;;;;5091403;28;20213;-73
2021/04/29 10:42:03;;;;;;;6.30;5.75;;;35.00;48.90;;;;;;5095182;28;20188;-73
2021/04/29 10:44:40;;;;;;;7.60;5.80;;;35.40;48.20;;;;;;5092509;28;20299;-73
2021/04/29 10:47:06;;;;;;;8.93;5.45;;;35.90;48.00;;;;;;5073008;28;20190;-72
2021/04/29 10:49:37;;;;;;;9.07;5.32;;;36.20;49.70;;;;;;5094350;28;20184;-73
2021/04/29 10:52:04;;;;;;;6.00;5.30;;;36.20;45.80;;;;;;5094140;28;20225;-73
2021/04/29 10:54:33;;;;;;;6.00;4.72;;;36.10;48.20;;;;;;5091314;28;20185;-72
2021/04/29 10:57:15;;;;;;;6.93;5.05;;;35.90;48.00;;;;;;5092977;28;20192;-72
2021/04/29 10:59:48;;;;;;;7.65;5.22;;;36.00;48.50;;;;;;5088571;28;20745;-72
2021/04/29 11:02:26;;;;;;;8.60;6.05;;;36.20;48.10;;;;;;5088722;28;20238;-72
2021/04/29 11:04:54;;;;;;;18.65;6.03;;;36.40;48.10;;;;;;5072247;28;20208;-73
2021/04/29 11:07:23;;;;;;;11.95;6.38;;;36.80;48.00;;;;;;5093696;28;20190;-72
2021/04/29 11:10:07;;;;;;;4.82;4.60;;;37.00;46.70;;;;;;5089805;28;21001;-72
2021/04/29 11:12:48;;;;;;;6.43;5.30;;;37.10;46.70;;;;;;5089123;28;20239;-72
2021/04/29 11:15:43;;;;;;;8.88;4.57;;;37.00;46.80;;;;;;5091445;28;20178;-71
2021/04/29 11:18:12;;;;;;;7.15;6.22;;;36.40;45.80;;;;;;5096299;28;20173;-73
2021/04/29 11:20:42;;;;;;;5.68;5.18;;;35.50;47.70;;;;;;5091707;28;20672;-73
2021/04/29 11:23:07;;;;;;;7.20;5.05;;;35.10;49.10;;;;;;5092757;28;20262;-73
2021/04/29 11:25:33;;;;;;;5.43;4.93;;;34.90;50.00;;;;;;5076941;28;20587;-72
2021/04/29 11:27:59;;;;;;;5.80;4.40;;;35.00;49.70;;;;;;5089151;28;20181;-73
2021/04/29 11:30:25;;;;;;;5.82;5.43;;;35.60;48.40;;;;;;5088513;28;20174;-73
2021/04/29 11:32:56;;;;;;;4.70;4.13;;;36.10;47.90;;;;;;5086985;28;20202;-73
2021/04/29 11:35:28;;;;;;;4.38;3.80;;;36.60;45.70;;;;;;5090077;28;20619;-73
2021/04/29 11:37:55;;;;;;;5.40;4.65;;;36.90;46.40;;;;;;5085821;28;20201;-72
2021/04/29 11:40:22;;;;;;;6.97;4.80;;;37.40;46.50;;;;;;5071125;28;20667;-72
2021/04/29 11:42:54;;;;;;;4.25;3.97;;;37.70;45.70;;;;;;5092544;28;20186;-72
2021/04/29 11:45:24;;;;;;;5.10;4.40;;;37.90;46.10;;;;;;5094631;28;20697;-72
2021/04/29 11:47:54;;;;;;;6.38;4.22;;;37.90;43.90;;;;;;5090359;28;20230;-72
2021/04/29 11:50:29;;;;;;;11.23;4.50;;;37.80;45.30;;;;;;5090115;28;20189;-72
2021/04/29 11:53:18;;;;;;;5.80;3.47;;;37.90;44.90;;;;;;5093015;28;20183;-72
2021/04/29 11:55:49;;;;;;;4.38;2.83;;;38.50;43.20;;;;;;5094637;28;20173;-72
2021/04/29 11:58:20;;;;;;;5.68;3.47;;;39.00;44.50;;;;;;5091058;28;20205;-72
2021/04/29 12:00:51;;;;;;;6.05;3.83;;;38.80;43.00;;;;;;5092676;28;20678;-72
2021/04/29 12:03:18;;;;;;;5.25;4.45;;;38.20;43.80;;;;;;5073790;28;20214;-72
2021/04/29 12:05:50;;;;;;;4.07;3.63;;;38.00;45.30;;;;;;5087441;28;20210;-71
2021/04/29 12:08:21;;;;;;;3.38;3.17;;;38.30;44.70;;;;;;5087448;28;20264;-73
2021/04/29 12:10:51;;;;;;;4.13;3.63;;;38.60;44.40;;;;;;5094184;28;20180;-73
2021/04/29 12:13:35;;;;;;;6.63;3.78;;;38.50;43.80;;;;;;5091584;28;20572;-73
2021/04/29 12:16:11;;;;;;;6.05;3.63;;;37.70;45.30;;;;;;5091819;28;20568;-72
2021/04/29 12:18:46;;;;;;;3.83;3.50;;;36.50;45.20;;;;;;5096384;28;20190;-73
2021/04/29 12:21:12;;;;;;;4.70;3.53;;;35.70;45.40;;;;;;5095881;28;20193;-72
2021/04/29 12:23:38;;;;;;;3.70;3.35;;;35.20;48.00;;;;;;5095062;28;20189;-72
2021/04/29 12:26:09;;;;;;;3.92;3.30;;;35.10;47.70;;;;;;5095075;28;20688;-73
2021/04/29 12:28:38;;;;;;;5.82;3.50;;;35.50;46.20;;;;;;5079666;28;20177;-74
2021/04/29 12:31:20;;;;;;;3.97;3.65;;;36.10;46.90;;;;;;5098370;28;20245;-73
2021/04/29 12:34:05;;;;;;;7.60;3.35;;;35.90;45.80;;;;;;5100046;28;20643;-73
2021/04/29 12:36:36;;;;;;;3.65;3.20;;;35.50;45.20;;;;;;5093674;28;20177;-73
2021/04/29 12:39:14;;;;;;;8.05;4.13;;;35.20;47.40;;;;;;5091987;28;20193;-73
2021/04/29 12:41:41;;;;;;;6.70;3.60;;;34.90;47.00;;;;;;5103297;28;20177;-72
2021/04/29 12:44:07;;;;;;;8.70;2.85;;;35.00;48.60;;;;;;5097178;28;20235;-73
2021/04/29 12:46:35;;;;;;;5.13;3.42;;;34.80;47.90;;;;;;5099395;28;20205;-73